createdAt,value
2019-05-09T00:00:40.207Z,12.60
2019-05-09T00:03:17.365Z,12.60
2019-05-09T00:05:51.450Z,12.60
2019-05-09T00:08:29.876Z,12.60
2019-05-09T00:11:03.607Z,12.50
2019-05-09T00:16:33.550Z,12.50
2019-05-09T00:19:04.467Z,12.50
2019-05-09T00:21:37.437Z,12.50
2019-05-09T00:24:13.856Z,12.50
2019-05-09T00:26:55.847Z,12.40
2019-05-09T00:29:33.458Z,12.40
2019-05-09T00:32:07.531Z,12.50
2019-05-09T00:34:56.544Z,12.40
2019-05-09T00:37:53.630Z,12.40
2019-05-09T00:40:54.958Z,12.50
2019-05-09T00:43:17.746Z,12.50
2019-05-09T00:46:04.335Z,12.50
2019-05-09T00:48:41.277Z,12.50
2019-05-09T00:51:15.543Z,12.50
2019-05-09T00:53:47.838Z,12.50
2019-05-09T00:56:20.538Z,12.50
2019-05-09T00:58:53.567Z,12.50
2019-05-09T01:01:27.798Z,12.60
2019-05-09T01:04:00.993Z,12.60
2019-05-09T01:06:34.087Z,12.50
2019-05-09T01:09:06.954Z,12.50
2019-05-09T01:11:36.803Z,12.60
2019-05-09T01:14:14.177Z,12.60
2019-05-09T01:16:49.538Z,12.60
2019-05-09T01:19:23.948Z,12.60
2019-05-09T01:22:03.690Z,12.60
2019-05-09T01:24:35.617Z,12.60
2019-05-09T01:27:06.628Z,12.60
2019-05-09T01:29:37.748Z,12.50
2019-05-09T01:32:16.840Z,12.50
2019-05-09T01:34:56.034Z,12.60
2019-05-09T01:37:30.495Z,12.50
2019-05-09T01:39:58.780Z,12.60
2019-05-09T01:42:33.640Z,12.60
2019-05-09T01:45:03.807Z,12.60
2019-05-09T01:47:48.130Z,12.60
2019-05-09T01:50:29.218Z,12.50
2019-05-09T01:53:06.032Z,12.50
2019-05-09T01:55:54.384Z,12.50
2019-05-09T01:58:27.293Z,12.50
2019-05-09T02:00:58.751Z,12.50
2019-05-09T02:03:30.084Z,12.50
2019-05-09T02:06:03.462Z,12.50
2019-05-09T02:08:35.139Z,12.50
2019-05-09T02:11:05.031Z,12.40
2019-05-09T02:13:34.734Z,12.40
2019-05-09T02:16:13.975Z,12.40
2019-05-09T02:18:46.227Z,12.40
2019-05-09T02:21:20.721Z,12.40
2019-05-09T02:23:54.988Z,12.40
2019-05-09T02:26:27.724Z,12.40
2019-05-09T02:28:59.011Z,12.40
2019-05-09T02:31:35.352Z,12.40
2019-05-09T02:34:14.806Z,12.40
2019-05-09T02:36:58.785Z,12.40
2019-05-09T02:39:30.264Z,12.40
2019-05-09T02:42:08.774Z,12.50
2019-05-09T02:44:35.473Z,12.40
2019-05-09T02:47:19.620Z,12.50
2019-05-09T02:49:59.131Z,12.50
2019-05-09T02:52:33.271Z,12.50
2019-05-09T02:55:11.203Z,12.50
2019-05-09T02:57:44.674Z,12.40
2019-05-09T03:00:30.120Z,12.40
2019-05-09T03:03:09.340Z,12.40
2019-05-09T03:05:41.842Z,12.40
2019-05-09T03:08:13.334Z,12.50
2019-05-09T03:10:48.775Z,12.50
2019-05-09T03:13:21.674Z,12.50
2019-05-09T03:15:58.589Z,12.40
2019-05-09T03:18:34.897Z,12.40
2019-05-09T03:21:30.349Z,12.40
2019-05-09T03:24:04.524Z,12.40
2019-05-09T03:26:41.521Z,12.40
2019-05-09T03:29:19.059Z,12.40
2019-05-09T03:31:52.638Z,12.40
2019-05-09T03:34:30.094Z,12.40
2019-05-09T03:37:03.477Z,12.40
2019-05-09T03:39:33.437Z,12.40
2019-05-09T03:42:09.131Z,12.40
2019-05-09T03:44:43.255Z,12.40
2019-05-09T03:47:37.645Z,12.40
2019-05-09T03:50:12.106Z,12.30
2019-05-09T03:52:43.799Z,12.30
2019-05-09T03:55:18.060Z,12.30
2019-05-09T03:58:07.571Z,12.30
2019-05-09T04:00:34.030Z,12.30
2019-05-09T04:03:11.878Z,12.30
2019-05-09T04:05:58.419Z,12.30
2019-05-09T04:08:19.556Z,12.30
2019-05-09T04:10:54.227Z,12.30
2019-05-09T04:13:28.398Z,12.20
2019-05-09T04:15:58.402Z,12.20
2019-05-09T04:18:30.150Z,12.20
2019-05-09T04:21:00.805Z,12.20
2019-05-09T04:23:33.825Z,12.20
2019-05-09T04:26:08.419Z,12.10
2019-05-09T04:28:39.976Z,12.10
2019-05-09T04:31:12.427Z,12.10
2019-05-09T04:33:47.467Z,12.10
2019-05-09T04:36:22.853Z,12.10
2019-05-09T04:39:00.787Z,12.10
2019-05-09T04:41:30.808Z,12.10
2019-05-09T04:44:05.135Z,12.00
2019-05-09T04:46:37.252Z,12.00
2019-05-09T04:49:09.881Z,11.90
2019-05-09T04:51:49.984Z,11.90
2019-05-09T04:54:22.860Z,11.90
2019-05-09T04:59:38.161Z,12.00
2019-05-09T05:02:18.688Z,11.90
2019-05-09T05:04:58.383Z,11.90
2019-05-09T05:07:28.533Z,11.90
2019-05-09T05:10:00.304Z,11.90
2019-05-09T05:12:32.820Z,12.00
2019-05-09T05:15:27.551Z,12.00
2019-05-09T05:17:59.227Z,12.10
2019-05-09T05:20:32.884Z,12.20
2019-05-09T05:23:10.754Z,12.20
2019-05-09T05:25:43.791Z,12.30
2019-05-09T05:28:48.920Z,12.30
2019-05-09T05:30:53.548Z,12.30
2019-05-09T05:36:10.341Z,12.40
2019-05-09T05:38:48.208Z,12.40
2019-05-09T05:41:24.138Z,12.50
2019-05-09T05:44:08.466Z,12.60
2019-05-09T05:46:43.584Z,12.60
2019-05-09T05:49:18.604Z,12.60
2019-05-09T05:51:59.497Z,12.70
2019-05-09T05:54:31.742Z,12.80
2019-05-09T05:57:38.580Z,12.80
2019-05-09T05:59:41.081Z,12.80
2019-05-09T06:02:27.962Z,12.90
2019-05-09T06:07:52.980Z,13.00
2019-05-09T06:10:22.939Z,13.10
2019-05-09T06:12:51.774Z,13.10
2019-05-09T06:15:29.466Z,13.00
2019-05-09T06:18:07.987Z,13.00
2019-05-09T06:20:41.523Z,13.00
2019-05-09T06:23:17.870Z,13.00
2019-05-09T06:25:48.598Z,13.10
2019-05-09T06:28:20.921Z,13.30
2019-05-09T06:30:53.012Z,13.40
2019-05-09T06:33:22.869Z,13.50
2019-05-09T06:35:59.501Z,13.70
2019-05-09T06:38:29.890Z,13.80
2019-05-09T06:41:02.720Z,13.90
2019-05-09T06:43:39.201Z,14.00
2019-05-09T06:46:12.613Z,14.20
2019-05-09T06:48:44.005Z,14.30
2019-05-09T06:51:18.086Z,14.30
2019-05-09T06:53:51.048Z,14.20
2019-05-09T06:56:22.689Z,14.30
2019-05-09T06:58:58.305Z,14.40
2019-05-09T07:01:30.753Z,14.30
2019-05-09T07:04:13.915Z,14.40
2019-05-09T07:06:48.270Z,14.50
2019-05-09T07:09:33.578Z,14.50
2019-05-09T07:12:07.955Z,14.50
2019-05-09T07:14:41.930Z,14.60
2019-05-09T07:17:13.324Z,14.70
2019-05-09T07:19:48.862Z,14.70
2019-05-09T07:22:32.560Z,14.80
2019-05-09T07:25:10.954Z,14.80
2019-05-09T07:27:40.055Z,14.80
2019-05-09T07:30:18.006Z,14.70
2019-05-09T07:32:57.852Z,14.60
2019-05-09T07:36:13.731Z,14.50
2019-05-09T07:38:04.007Z,14.40
2019-05-09T07:40:30.927Z,14.30
2019-05-09T07:43:02.407Z,14.20
2019-05-09T07:45:34.995Z,14.20
2019-05-09T07:48:15.149Z,14.20
2019-05-09T07:50:47.985Z,14.30
2019-05-09T07:53:18.635Z,14.40
2019-05-09T07:55:50.134Z,14.40
2019-05-09T07:58:28.343Z,14.70
2019-05-09T08:01:01.354Z,15.00
2019-05-09T08:03:28.325Z,15.50
2019-05-09T08:05:59.777Z,15.60
2019-05-09T08:08:31.627Z,15.50
2019-05-09T08:11:08.795Z,15.40
2019-05-09T08:13:44.966Z,15.30
2019-05-09T08:16:20.763Z,15.30
2019-05-09T08:18:53.515Z,15.30
2019-05-09T08:21:27.666Z,15.20
2019-05-09T08:23:59.295Z,15.20
2019-05-09T08:26:30.637Z,15.20
2019-05-09T08:29:02.020Z,15.10
2019-05-09T08:31:34.050Z,15.20
2019-05-09T08:34:08.315Z,15.20
2019-05-09T08:36:39.025Z,15.10
2019-05-09T08:39:13.211Z,15.20
2019-05-09T08:41:59.320Z,15.30
2019-05-09T08:44:41.881Z,15.50
2019-05-09T08:47:11.455Z,15.60
2019-05-09T08:49:46.514Z,15.60
2019-05-09T08:52:19.416Z,15.70
2019-05-09T08:54:53.300Z,15.80
2019-05-09T08:57:37.527Z,15.70
2019-05-09T09:00:10.772Z,15.70
2019-05-09T09:03:21.056Z,15.70
2019-05-09T09:05:38.173Z,15.80
2019-05-09T09:08:15.026Z,16.00
2019-05-09T09:14:03.042Z,16.10
2019-05-09T09:16:42.598Z,16.10
2019-05-09T09:19:19.751Z,16.20
2019-05-09T09:22:14.545Z,16.30
2019-05-09T09:24:49.065Z,16.30
2019-05-09T09:27:27.348Z,16.50
2019-05-09T09:29:58.701Z,16.50
2019-05-09T09:32:32.937Z,16.50
2019-05-09T09:45:22.589Z,17.50
2019-05-09T09:50:43.056Z,17.40
2019-05-09T09:53:59.378Z,17.50
2019-05-09T10:02:02.741Z,17.40
2019-05-09T10:04:48.421Z,17.30
2019-05-09T10:07:40.888Z,17.40
2019-05-09T10:53:36.299Z,18.10
2019-05-09T10:59:07.464Z,18.00
2019-05-09T11:01:39.820Z,18.10
2019-05-09T11:04:09.600Z,18.10
2019-05-09T11:21:47.924Z,17.90
2019-05-09T15:31:54.471Z,36.50
2019-05-09T15:37:29.426Z,37.30
2019-05-09T15:40:17.602Z,37.50
2019-05-09T15:42:48.112Z,37.60
2019-05-09T15:45:22.378Z,37.30
2019-05-09T15:47:53.828Z,36.50
2019-05-09T15:50:58.345Z,36.10
2019-05-09T15:53:15.389Z,35.70
2019-05-09T15:55:48.818Z,35.50
2019-05-09T15:58:22.356Z,35.80
2019-05-09T16:00:54.747Z,35.60
2019-05-09T16:03:27.907Z,36.10
2019-05-09T16:06:50.257Z,36.90
2019-05-09T16:08:47.977Z,37.00
2019-05-09T16:11:41.566Z,36.60
2019-05-09T16:14:08.734Z,36.40
2019-05-09T16:16:39.842Z,36.10
2019-05-09T16:19:23.834Z,35.80
2019-05-09T16:21:53.723Z,36.40
2019-05-09T16:24:30.656Z,36.50
2019-05-09T16:27:08.381Z,36.10
2019-05-09T16:29:38.313Z,35.70
2019-05-09T16:32:12.045Z,34.80
2019-05-09T16:34:43.425Z,33.90
2019-05-09T16:37:17.470Z,32.90
2019-05-09T16:40:01.933Z,31.30
2019-05-09T16:42:33.968Z,30.50
2019-05-09T16:45:08.066Z,30.70
2019-05-09T16:47:42.381Z,30.90
2019-05-09T16:50:12.606Z,31.40
2019-05-09T16:52:44.052Z,31.90
2019-05-09T16:55:18.007Z,32.40
2019-05-09T16:57:57.321Z,32.70
2019-05-09T17:00:38.157Z,33.70
2019-05-09T17:03:09.649Z,34.30
2019-05-09T17:05:42.641Z,34.80
2019-05-09T17:08:12.647Z,34.50
2019-05-09T17:10:44.036Z,34.20
2019-05-09T17:13:18.216Z,33.20
2019-05-09T17:15:47.340Z,31.80
2019-05-09T17:18:18.852Z,30.70
2019-05-09T17:21:15.080Z,30.00
2019-05-09T17:23:33.952Z,29.40
2019-05-09T17:26:03.502Z,28.90
2019-05-09T17:28:33.457Z,28.80
2019-05-09T17:31:19.265Z,28.80
2019-05-09T17:33:38.995Z,29.20
2019-05-09T17:36:11.742Z,29.60
2019-05-09T17:38:41.537Z,29.60
2019-05-09T17:41:24.463Z,29.50
2019-05-09T17:43:52.722Z,29.30
2019-05-09T17:46:27.392Z,29.00
2019-05-09T17:48:58.313Z,28.50
2019-05-09T17:51:34.012Z,28.10
2019-05-09T17:54:00.353Z,27.50
2019-05-09T17:56:31.685Z,26.80
2019-05-09T17:59:01.539Z,26.30
2019-05-09T18:01:31.169Z,25.60
2019-05-09T18:04:02.737Z,25.00
2019-05-09T18:06:34.828Z,24.50
2019-05-09T18:09:08.246Z,24.00
2019-05-09T18:11:39.104Z,23.50
2019-05-09T18:14:10.468Z,23.10
2019-05-09T18:16:40.383Z,22.70
2019-05-09T18:19:10.731Z,22.30
2019-05-09T18:21:50.410Z,21.90
2019-05-09T18:24:11.857Z,21.50
2019-05-09T18:26:42.642Z,21.10
2019-05-09T18:29:14.805Z,20.80
2019-05-09T18:38:02.669Z,19.80
2019-05-09T18:40:36.532Z,19.50
2019-05-09T18:43:14.833Z,19.20
2019-05-09T18:46:02.220Z,18.80
2019-05-09T18:48:43.916Z,18.50
2019-05-09T18:51:15.803Z,18.20
2019-05-09T18:53:45.522Z,17.90
2019-05-09T18:56:19.714Z,17.60
2019-05-09T18:58:55.709Z,17.40
2019-05-09T19:01:28.590Z,17.30
2019-05-09T19:04:03.408Z,17.20
2019-05-09T19:06:41.372Z,17.00
2019-05-09T19:09:51.920Z,16.90
2019-05-09T19:15:12.933Z,16.60
2019-05-09T19:17:49.854Z,16.50
2019-05-09T19:20:37.016Z,16.30
2019-05-09T19:23:06.866Z,16.10
2019-05-09T19:25:38.284Z,15.90
2019-05-09T19:28:07.267Z,15.70
2019-05-09T19:30:38.315Z,15.60
2019-05-09T19:33:08.237Z,15.50
2019-05-09T19:35:40.324Z,15.40
2019-05-09T19:40:54.137Z,15.20
2019-05-09T19:43:26.005Z,15.20
2019-05-09T19:45:55.410Z,15.10
2019-05-09T19:48:25.141Z,15.00
2019-05-09T19:50:54.965Z,14.90
2019-05-09T19:53:23.999Z,14.90
2019-05-09T19:55:53.720Z,14.80
2019-05-09T19:58:22.680Z,14.70
2019-05-09T20:00:52.495Z,14.70
2019-05-09T20:03:22.216Z,14.60
2019-05-09T20:05:51.995Z,14.50
2019-05-09T20:08:22.174Z,14.40
2019-05-09T20:11:08.581Z,14.40
2019-05-09T20:13:54.770Z,14.40
2019-05-09T20:16:25.288Z,14.40
2019-05-09T20:18:54.977Z,14.30
2019-05-09T20:21:26.736Z,14.20
2019-05-09T20:23:58.927Z,14.20
2019-05-09T20:26:34.064Z,14.10
2019-05-09T20:29:03.769Z,14.10
2019-05-09T20:31:33.533Z,14.10
2019-05-09T20:34:03.199Z,14.10
2019-05-09T20:36:33.234Z,14.00
2019-05-09T20:39:04.144Z,14.00
2019-05-09T20:41:34.111Z,13.90
2019-05-09T20:44:04.259Z,13.90
2019-05-09T20:46:35.179Z,13.80
2019-05-09T20:49:05.387Z,13.80
2019-05-09T20:51:35.345Z,13.70
2019-05-09T20:54:18.965Z,13.70
2019-05-09T20:56:40.446Z,13.60
2019-05-09T20:59:11.999Z,13.60
2019-05-09T21:01:42.628Z,13.50
2019-05-09T21:04:12.425Z,13.50
2019-05-09T21:06:41.586Z,13.50
2019-05-09T21:09:11.347Z,13.50
2019-05-09T21:11:41.259Z,13.40
2019-05-09T21:14:10.413Z,13.40
2019-05-09T21:16:40.247Z,13.40
2019-05-09T21:19:09.259Z,13.40
2019-05-09T21:21:40.250Z,13.30
2019-05-09T21:24:10.080Z,13.30
2019-05-09T21:26:40.026Z,13.30
2019-05-09T21:29:09.096Z,13.30
2019-05-09T21:31:39.879Z,13.30
2019-05-09T21:34:09.787Z,13.20
2019-05-09T21:36:42.441Z,13.20
2019-05-09T21:39:12.192Z,13.20
2019-05-09T21:41:42.005Z,13.20
2019-05-09T21:44:13.273Z,13.10
2019-05-09T21:46:43.058Z,13.00
2019-05-09T21:49:14.277Z,13.00
2019-05-09T21:51:43.908Z,13.00
2019-05-09T21:54:13.629Z,12.90
2019-05-09T21:56:43.288Z,12.80
2019-05-09T21:59:12.933Z,12.80
2019-05-09T22:01:42.905Z,12.70
2019-05-09T22:04:14.286Z,12.70
2019-05-09T22:06:45.564Z,12.70
2019-05-09T22:09:15.376Z,12.60
2019-05-09T22:14:14.370Z,12.60
2019-05-09T22:16:45.826Z,12.60
2019-05-09T22:19:18.445Z,12.60
2019-05-09T22:21:48.097Z,12.50
2019-05-09T22:24:17.754Z,12.50
2019-05-09T22:26:49.074Z,12.50
2019-05-09T22:29:20.372Z,12.50
2019-05-09T22:31:50.003Z,12.50
2019-05-09T22:34:19.782Z,12.50
2019-05-09T22:36:49.548Z,12.50
2019-05-09T22:39:19.272Z,12.40
2019-05-09T22:41:48.974Z,12.40
2019-05-09T22:44:20.192Z,12.40
2019-05-09T22:46:49.843Z,12.40
2019-05-09T22:49:19.655Z,12.40
2019-05-09T22:51:48.507Z,12.40
2019-05-09T22:54:19.761Z,12.40
2019-05-09T22:56:50.991Z,12.40
2019-05-09T22:59:22.294Z,12.40
2019-05-09T23:01:53.677Z,12.50
2019-05-09T23:04:24.889Z,12.50
2019-05-09T23:06:54.727Z,12.60
2019-05-09T23:09:24.436Z,12.70
2019-05-09T23:11:54.248Z,12.80
2019-05-09T23:14:23.003Z,12.90
2019-05-09T23:16:52.560Z,12.90
2019-05-09T23:19:22.328Z,13.00
2019-05-09T23:21:52.085Z,13.10
2019-05-09T23:24:28.549Z,13.10
2019-05-09T23:26:56.683Z,13.20
2019-05-09T23:29:26.255Z,13.30
2019-05-09T23:32:12.336Z,13.40
2019-05-09T23:34:46.072Z,13.40
2019-05-09T23:37:25.159Z,13.50
2019-05-09T23:39:58.727Z,13.60
2019-05-09T23:42:28.501Z,13.60
2019-05-09T23:44:58.120Z,13.70
2019-05-09T23:47:27.922Z,13.70
2019-05-09T23:49:57.559Z,13.70
2019-05-09T23:52:31.816Z,13.70
2019-05-09T23:55:18.483Z,13.70
2019-05-09T23:58:07.133Z,13.70
